Time;durP1;ratioP1;P1;durP2;ratioP2;P2;SDS_P1;SDS_P2;PMS_P1;PMS_P2;Temp;Humidity;BMP_temperature;BMP_pressure;BME280_temperature;BME280_humidity;BME280_pressure;Samples;Min_cycle;Max_cycle;Signal;HPM_P1;HPM_P2
2023/11/25 00:00:22;;;;;;;5.10;2.13;;;3.20;85.90;;;;;;5026138;28;20486;-76
2023/11/25 00:02:49;;;;;;;3.47;2.33;;;3.30;86.00;;;;;;5028660;28;20612;-77
2023/11/25 00:05:16;;;;;;;4.90;2.10;;;3.20;85.90;;;;;;5024384;28;20181;-79
2023/11/25 00:07:42;;;;;;;5.43;2.10;;;3.20;85.90;;;;;;5023860;28;20185;-77
2023/11/25 00:10:08;;;;;;;4.43;2.47;;;3.20;85.90;;;;;;5025245;28;20459;-77
2023/11/25 00:12:34;;;;;;;8.23;2.42;;;3.20;86.00;;;;;;5024402;28;20534;-77
2023/11/25 00:15:00;;;;;;;3.30;1.90;;;3.20;86.00;;;;;;5023929;28;20217;-78
2023/11/25 00:17:28;;;;;;;6.57;2.25;;;3.20;86.00;;;;;;5021318;28;20440;-76
2023/11/25 00:19:57;;;;;;;7.47;2.23;;;3.10;86.00;;;;;;5022176;28;20215;-77
2023/11/25 00:22:23;;;;;;;6.28;2.05;;;3.10;86.00;;;;;;5018357;28;20428;-78
2023/11/25 00:24:49;;;;;;;6.43;2.07;;;3.10;86.00;;;;;;5024096;28;20198;-78
2023/11/25 00:27:15;;;;;;;8.80;1.92;;;3.10;86.00;;;;;;5022279;28;21042;-79
2023/11/25 00:29:41;;;;;;;4.73;2.00;;;3.10;85.00;;;;;;5020932;28;20212;-78
2023/11/25 00:32:07;;;;;;;9.10;2.00;;;3.20;84.70;;;;;;5022218;28;20236;-79
2023/11/25 00:34:33;;;;;;;5.10;1.90;;;3.20;84.10;;;;;;5022199;28;20439;-77
2023/11/25 00:36:59;;;;;;;8.77;2.10;;;3.30;83.70;;;;;;5020511;28;20182;-77
2023/11/25 00:39:24;;;;;;;3.73;1.90;;;3.30;83.80;;;;;;5020416;28;20461;-79
2023/11/25 00:41:50;;;;;;;5.87;2.40;;;3.30;83.60;;;;;;5023215;28;20560;-77
2023/11/25 00:44:15;;;;;;;4.57;2.20;;;3.30;83.10;;;;;;5021991;28;20178;-76
2023/11/25 00:46:42;;;;;;;5.40;2.00;;;3.40;83.40;;;;;;5029513;28;20272;-77
2023/11/25 00:49:08;;;;;;;3.67;1.40;;;3.40;83.10;;;;;;5016353;28;20188;-74
2023/11/25 00:51:34;;;;;;;7.70;2.17;;;3.50;83.40;;;;;;5025360;28;20464;-77
2023/11/25 00:53:59;;;;;;;3.10;1.50;;;3.50;82.80;;;;;;5019100;28;20507;-78
2023/11/25 00:56:25;;;;;;;3.80;1.60;;;3.50;82.70;;;;;;5024749;28;21021;-78
2023/11/25 00:58:51;;;;;;;4.10;1.90;;;3.50;82.70;;;;;;5019177;28;20516;-77
2023/11/25 01:01:16;;;;;;;6.30;1.90;;;3.50;82.20;;;;;;5027303;28;20201;-77
2023/11/25 01:03:42;;;;;;;5.13;1.87;;;3.50;82.40;;;;;;5018931;28;20421;-77
2023/11/25 01:06:08;;;;;;;2.67;1.47;;;3.50;81.70;;;;;;5025296;28;20183;-77
2023/11/25 01:08:34;;;;;;;8.13;1.93;;;3.50;81.50;;;;;;5041094;28;20201;-77
2023/11/25 01:11:00;;;;;;;5.50;1.80;;;3.50;81.20;;;;;;5030457;28;21003;-77
2023/11/25 01:13:25;;;;;;;4.43;1.53;;;3.50;80.60;;;;;;5026622;28;20436;-80
2023/11/25 01:15:52;;;;;;;7.97;1.40;;;3.50;79.70;;;;;;5028609;28;20224;-79
2023/11/25 01:18:19;;;;;;;4.50;1.37;;;3.50;79.60;;;;;;5023815;28;20181;-79
2023/11/25 01:20:45;;;;;;;6.20;2.33;;;3.50;79.00;;;;;;5020318;28;20539;-79
2023/11/25 01:23:10;;;;;;;2.53;1.70;;;3.60;79.30;;;;;;5028285;28;20470;-78
2023/11/25 01:25:36;;;;;;;2.97;1.60;;;3.60;79.20;;;;;;5016281;28;20206;-77
2023/11/25 01:28:03;;;;;;;2.53;1.57;;;3.50;78.30;;;;;;5027140;28;20820;-78
2023/11/25 01:30:33;;;;;;;7.30;1.90;;;3.50;78.90;;;;;;5016834;28;20469;-77
2023/11/25 01:32:59;;;;;;;7.50;1.80;;;3.50;79.30;;;;;;5029174;28;20424;-78
2023/11/25 01:35:25;;;;;;;1.90;1.57;;;3.40;79.60;;;;;;5023835;28;20559;-78
2023/11/25 01:37:51;;;;;;;8.63;1.57;;;3.40;79.70;;;;;;5031210;28;20543;-78
2023/11/25 01:40:20;;;;;;;2.73;1.40;;;3.30;79.90;;;;;;5025271;28;20507;-79
2023/11/25 01:42:46;;;;;;;5.53;1.70;;;3.20;79.70;;;;;;5022239;28;20190;-78
2023/11/25 01:45:12;;;;;;;3.20;1.50;;;3.20;79.90;;;;;;5026270;28;20451;-79
2023/11/25 01:47:38;;;;;;;2.03;1.40;;;3.20;79.50;;;;;;5021566;28;20257;-79
2023/11/25 01:50:05;;;;;;;7.73;1.80;;;3.30;79.90;;;;;;5018335;28;20452;-79
2023/11/25 01:52:32;;;;;;;4.37;1.50;;;3.30;80.00;;;;;;5021023;28;20486;-81
2023/11/25 01:55:01;;;;;;;4.63;1.70;;;3.30;79.90;;;;;;5027833;28;20484;-79
2023/11/25 01:57:28;;;;;;;8.97;1.50;;;3.20;80.20;;;;;;5023260;28;20520;-79
2023/11/25 01:59:55;;;;;;;3.10;1.70;;;3.20;80.20;;;;;;5026995;28;20448;-79
2023/11/25 02:02:24;;;;;;;4.28;2.40;;;3.20;80.30;;;;;;5024577;28;20418;-79
2023/11/25 02:04:50;;;;;;;3.73;1.70;;;3.20;80.50;;;;;;5024162;28;20189;-79
2023/11/25 02:07:16;;;;;;;7.60;1.77;;;3.20;80.60;;;;;;5025348;28;20419;-79
2023/11/25 02:09:42;;;;;;;5.23;1.97;;;3.20;80.50;;;;;;5027110;28;20247;-79
2023/11/25 02:12:08;;;;;;;2.83;1.50;;;3.20;79.90;;;;;;5021220;28;20216;-77
2023/11/25 02:14:34;;;;;;;2.70;1.80;;;3.10;79.90;;;;;;5030906;28;20432;-80
2023/11/25 02:16:59;;;;;;;6.47;1.57;;;3.10;80.20;;;;;;5030021;28;20256;-79
2023/11/25 02:19:25;;;;;;;7.67;2.27;;;3.10;79.90;;;;;;5032516;28;20293;-77
2023/11/25 02:21:55;;;;;;;4.40;2.17;;;3.10;80.00;;;;;;5035240;28;20190;-80
2023/11/25 02:24:26;;;;;;;5.13;2.20;;;3.10;79.90;;;;;;5039123;28;20415;-79
2023/11/25 02:27:00;;;;;;;7.67;1.90;;;3.10;80.50;;;;;;5033391;28;20192;-80
2023/11/25 02:29:27;;;;;;;6.77;2.27;;;3.10;79.90;;;;;;5028180;28;20494;-79
2023/11/25 02:31:53;;;;;;;2.60;1.92;;;3.10;80.30;;;;;;5037601;28;20459;-78
2023/11/25 02:34:20;;;;;;;6.50;1.97;;;3.10;80.50;;;;;;5034015;28;20186;-79
2023/11/25 02:36:46;;;;;;;12.30;2.38;;;3.00;80.60;;;;;;5034126;28;20208;-80
2023/11/25 02:39:14;;;;;;;6.50;2.23;;;3.00;80.00;;;;;;5020760;28;20591;-80
2023/11/25 02:41:40;;;;;;;7.07;2.10;;;3.00;79.90;;;;;;5041607;28;20252;-78
2023/11/25 02:44:07;;;;;;;6.07;1.93;;;2.90;80.20;;;;;;5026353;28;20181;-79
2023/11/25 02:46:33;;;;;;;4.43;1.48;;;2.80;80.20;;;;;;5035001;28;20197;-79
2023/11/25 02:48:59;;;;;;;3.23;1.77;;;2.80;80.50;;;;;;5035580;28;20196;-78
2023/11/25 02:51:25;;;;;;;4.60;1.80;;;2.80;80.60;;;;;;5027981;28;20504;-77
2023/11/25 02:53:50;;;;;;;5.73;2.47;;;2.80;80.80;;;;;;5026678;28;20446;-79
2023/11/25 02:56:16;;;;;;;6.27;2.20;;;2.80;80.80;;;;;;5027137;28;20590;-80
2023/11/25 02:58:42;;;;;;;3.80;2.27;;;2.80;80.60;;;;;;5029750;28;20181;-79
2023/11/25 03:01:11;;;;;;;5.23;2.40;;;2.80;80.80;;;;;;5036376;28;20208;-79
2023/11/25 03:03:47;;;;;;;6.00;2.33;;;2.80;80.80;;;;;;5029881;28;20451;-77
2023/11/25 03:06:14;;;;;;;3.97;2.20;;;2.80;80.90;;;;;;5032196;28;20423;-77
2023/11/25 03:08:41;;;;;;;9.50;2.30;;;2.80;80.80;;;;;;5046133;28;20403;-79
2023/11/25 03:11:16;;;;;;;7.40;2.20;;;2.80;80.80;;;;;;5036619;28;20458;-78
2023/11/25 03:13:42;;;;;;;4.20;2.07;;;2.70;80.50;;;;;;5043996;28;20414;-79
2023/11/25 03:16:10;;;;;;;4.20;2.30;;;2.70;80.60;;;;;;5037788;28;20475;-80
2023/11/25 03:18:36;;;;;;;3.78;2.13;;;2.80;80.90;;;;;;5041179;28;20243;-77
2023/11/25 03:21:21;;;;;;;8.80;2.63;;;2.80;80.80;;;;;;5030287;28;20216;-79
2023/11/25 03:23:47;;;;;;;6.40;2.20;;;2.80;80.60;;;;;;5042370;28;20872;-78
2023/11/25 03:26:13;;;;;;;5.90;2.43;;;2.80;80.20;;;;;;5042528;28;20177;-78
2023/11/25 03:28:39;;;;;;;7.40;3.13;;;2.90;80.00;;;;;;5043868;28;20416;-79
2023/11/25 03:31:07;;;;;;;8.03;2.63;;;2.90;80.00;;;;;;5031061;28;20230;-78
2023/11/25 03:33:33;;;;;;;4.25;2.40;;;2.80;79.90;;;;;;5034097;28;20413;-79
2023/11/25 03:35:59;;;;;;;4.57;2.10;;;2.90;79.90;;;;;;5030840;28;20259;-79
2023/11/25 03:38:24;;;;;;;4.83;2.73;;;3.00;80.00;;;;;;5039321;28;20181;-79
2023/11/25 03:40:52;;;;;;;5.77;2.20;;;2.90;79.20;;;;;;5042546;28;20297;-78
2023/11/25 03:43:21;;;;;;;6.97;3.63;;;2.90;79.50;;;;;;5064809;28;20169;-78
2023/11/25 03:45:50;;;;;;;5.82;2.45;;;3.00;79.70;;;;;;5040499;28;20209;-79
2023/11/25 03:48:16;;;;;;;10.35;3.00;;;3.00;79.60;;;;;;5046073;28;20193;-79
2023/11/25 03:50:42;;;;;;;11.40;2.57;;;3.10;79.70;;;;;;5039116;28;20213;-80
2023/11/25 03:53:08;;;;;;;10.95;2.53;;;3.00;78.70;;;;;;5040822;28;20451;-79
2023/11/25 03:55:34;;;;;;;4.87;2.20;;;3.00;78.40;;;;;;5036196;28;20209;-80
2023/11/25 03:58:01;;;;;;;5.20;2.47;;;2.90;78.30;;;;;;5032132;28;20662;-78
2023/11/25 04:00:27;;;;;;;7.65;2.65;;;2.90;77.70;;;;;;5034825;28;21022;-81
2023/11/25 04:02:53;;;;;;;8.77;2.33;;;2.90;77.70;;;;;;5026801;28;20666;-78
2023/11/25 04:05:19;;;;;;;6.47;2.30;;;2.90;78.10;;;;;;5039064;28;20177;-80
2023/11/25 04:07:45;;;;;;;5.90;3.60;;;3.00;78.40;;;;;;5046942;28;20190;-80
2023/11/25 04:10:12;;;;;;;3.38;2.90;;;3.00;78.10;;;;;;5037453;28;20502;-79
2023/11/25 04:12:39;;;;;;;5.00;2.58;;;2.90;78.10;;;;;;5037748;28;20185;-80
2023/11/25 04:15:08;;;;;;;5.70;2.58;;;2.80;78.40;;;;;;5042747;28;20771;-80
2023/11/25 04:17:34;;;;;;;2.95;2.08;;;2.80;78.40;;;;;;5026376;28;20174;-80
2023/11/25 04:20:00;;;;;;;4.82;2.20;;;2.80;78.40;;;;;;5030234;28;20224;-79
2023/11/25 04:22:25;;;;;;;3.33;1.93;;;2.90;78.40;;;;;;5028151;28;20839;-78
2023/11/25 04:24:52;;;;;;;4.57;2.20;;;2.90;78.40;;;;;;5031351;28;20182;-79
2023/11/25 04:27:18;;;;;;;6.93;2.78;;;2.80;78.30;;;;;;5022820;28;20178;-79
2023/11/25 04:29:43;;;;;;;12.70;2.50;;;2.90;78.40;;;;;;5029825;28;20617;-78
2023/11/25 04:32:09;;;;;;;9.10;2.50;;;3.00;78.40;;;;;;5024345;28;20180;-79
2023/11/25 04:34:36;;;;;;;5.30;1.83;;;2.90;78.30;;;;;;5030779;28;20260;-78
2023/11/25 04:37:02;;;;;;;6.43;2.35;;;2.80;77.80;;;;;;5030266;28;20217;-79
2023/11/25 04:39:29;;;;;;;8.03;2.30;;;2.80;78.30;;;;;;5035056;28;20210;-78
2023/11/25 04:41:54;;;;;;;6.00;2.60;;;2.90;78.40;;;;;;5030500;28;20212;-80
2023/11/25 04:44:24;;;;;;;5.00;2.30;;;2.80;78.40;;;;;;5035076;28;20428;-80
2023/11/25 04:46:50;;;;;;;4.25;1.90;;;2.80;78.40;;;;;;5038883;28;20554;-81
2023/11/25 04:49:21;;;;;;;3.75;2.03;;;2.80;78.30;;;;;;5043301;28;20252;-80
2023/11/25 04:51:49;;;;;;;12.82;3.80;;;2.70;78.30;;;;;;5035951;28;20197;-79
2023/11/25 04:54:15;;;;;;;9.20;2.60;;;2.70;78.60;;;;;;5031644;28;20201;-81
2023/11/25 04:56:41;;;;;;;10.10;2.13;;;2.70;78.70;;;;;;5030970;28;20474;-80
2023/11/25 04:59:06;;;;;;;4.10;1.93;;;2.70;78.70;;;;;;5031942;28;20633;-77
2023/11/25 05:01:32;;;;;;;1.70;1.30;;;2.70;78.60;;;;;;5035502;28;20459;-78
2023/11/25 05:03:58;;;;;;;8.63;2.00;;;2.70;78.40;;;;;;5038426;28;20223;-80
2023/11/25 05:06:24;;;;;;;12.48;3.45;;;2.70;78.10;;;;;;5031237;28;20889;-80
2023/11/25 05:08:49;;;;;;;3.33;1.60;;;2.70;78.30;;;;;;5033884;28;20209;-79
2023/11/25 05:11:15;;;;;;;8.90;2.27;;;2.60;78.10;;;;;;5023170;28;20213;-78
2023/11/25 05:13:45;;;;;;;4.10;2.00;;;2.60;78.40;;;;;;5022418;28;20178;-80
2023/11/25 05:16:11;;;;;;;3.63;1.50;;;2.60;78.60;;;;;;5031159;28;20987;-79
2023/11/25 05:18:36;;;;;;;8.20;2.10;;;2.60;78.70;;;;;;5021017;28;20247;-77
2023/11/25 05:21:03;;;;;;;6.03;2.03;;;2.50;78.70;;;;;;5028635;28;20220;-80
2023/11/25 05:23:28;;;;;;;7.68;1.95;;;2.50;79.00;;;;;;5022047;28;20587;-80
2023/11/25 05:25:55;;;;;;;5.67;2.60;;;2.50;79.20;;;;;;5032472;28;20192;-79
2023/11/25 05:28:22;;;;;;;3.45;2.00;;;2.50;79.20;;;;;;5029815;28;20670;-79
2023/11/25 05:30:48;;;;;;;3.67;1.63;;;2.50;79.20;;;;;;5024873;28;20239;-81
2023/11/25 05:33:14;;;;;;;4.10;2.00;;;2.50;79.00;;;;;;5026443;28;20249;-79
2023/11/25 05:35:41;;;;;;;4.13;1.90;;;2.40;79.20;;;;;;5036330;28;20212;-77
2023/11/25 05:38:08;;;;;;;3.75;1.88;;;2.40;79.20;;;;;;5030444;28;20177;-79
2023/11/25 05:40:36;;;;;;;6.38;1.75;;;2.40;79.50;;;;;;5025184;28;20694;-80
2023/11/25 05:43:02;;;;;;;5.60;1.70;;;2.40;79.00;;;;;;5026857;28;20581;-79
2023/11/25 05:45:30;;;;;;;4.38;1.95;;;2.40;78.70;;;;;;5028585;28;20488;-82
2023/11/25 05:47:57;;;;;;;5.18;1.90;;;2.40;78.90;;;;;;5035382;28;20186;-79
2023/11/25 05:50:23;;;;;;;9.00;2.10;;;2.40;79.00;;;;;;5033583;28;20232;-80
2023/11/25 05:52:50;;;;;;;5.70;2.30;;;2.40;78.90;;;;;;5028125;28;20200;-80
2023/11/25 05:55:16;;;;;;;5.55;2.00;;;2.40;78.90;;;;;;5031406;28;20463;-80
2023/11/25 05:57:44;;;;;;;4.40;2.27;;;2.40;79.00;;;;;;5029656;28;20563;-80
2023/11/25 06:00:16;;;;;;;3.40;1.98;;;2.40;79.00;;;;;;5030371;28;20475;-81
2023/11/25 06:02:42;;;;;;;6.57;1.90;;;2.40;79.00;;;;;;5027544;28;20261;-81
2023/11/25 06:05:09;;;;;;;6.63;1.80;;;2.40;79.00;;;;;;5024607;28;20447;-80
2023/11/25 06:07:34;;;;;;;5.60;1.90;;;2.50;79.20;;;;;;5028948;28;20229;-78
2023/11/25 06:10:00;;;;;;;4.27;1.97;;;2.50;78.90;;;;;;5021110;28;20235;-80
2023/11/25 06:12:26;;;;;;;4.47;1.87;;;2.50;79.20;;;;;;5029212;28;20173;-79
2023/11/25 06:14:55;;;;;;;4.28;1.92;;;2.50;79.20;;;;;;5029723;28;20212;-80
2023/11/25 06:17:23;;;;;;;6.35;2.25;;;2.50;78.70;;;;;;5028888;28;20181;-79
2023/11/25 06:19:49;;;;;;;6.87;1.93;;;2.40;78.90;;;;;;5031041;28;20533;-78
2023/11/25 06:22:15;;;;;;;4.90;1.80;;;2.50;79.30;;;;;;5037829;28;20416;-79
2023/11/25 06:24:40;;;;;;;4.47;2.10;;;2.50;79.30;;;;;;5022888;28;20213;-81
2023/11/25 06:27:06;;;;;;;4.37;1.80;;;2.60;79.20;;;;;;5030872;28;20216;-79
2023/11/25 06:29:32;;;;;;;14.57;2.23;;;2.60;79.20;;;;;;5016515;28;20205;-78
2023/11/25 06:31:58;;;;;;;8.33;2.03;;;2.60;79.00;;;;;;5027186;28;20193;-78
2023/11/25 06:34:23;;;;;;;6.30;2.10;;;2.60;79.00;;;;;;5026860;28;20243;-77
2023/11/25 06:36:49;;;;;;;6.30;2.47;;;2.60;79.00;;;;;;5036547;28;20225;-78
2023/11/25 06:39:14;;;;;;;6.10;2.20;;;2.50;79.20;;;;;;5031391;28;20734;-79
2023/11/25 06:41:48;;;;;;;6.87;2.10;;;2.50;79.30;;;;;;5030878;28;20189;-79
2023/11/25 06:44:15;;;;;;;6.57;1.80;;;2.50;79.50;;;;;;5029104;28;20185;-78
2023/11/25 06:46:41;;;;;;;6.00;2.22;;;2.50;79.60;;;;;;5029366;28;20513;-78
2023/11/25 06:49:07;;;;;;;3.53;1.73;;;2.50;79.90;;;;;;5035846;28;20766;-79
2023/11/25 06:51:32;;;;;;;10.00;2.22;;;2.50;80.00;;;;;;5027257;28;20205;-80
2023/11/25 06:53:58;;;;;;;6.23;2.00;;;2.50;80.00;;;;;;5036127;28;20188;-78
2023/11/25 06:56:24;;;;;;;3.33;1.87;;;2.50;80.20;;;;;;5034584;28;20272;-79
2023/11/25 06:58:52;;;;;;;5.80;1.67;;;2.50;80.30;;;;;;5032819;28;20181;-80
2023/11/25 07:01:21;;;;;;;7.05;2.33;;;2.50;80.30;;;;;;5030323;28;20341;-80
2023/11/25 07:03:48;;;;;;;3.28;1.67;;;2.50;80.60;;;;;;5030562;28;20190;-80
2023/11/25 07:06:17;;;;;;;3.78;2.13;;;2.50;80.60;;;;;;5031284;28;20186;-81
2023/11/25 07:08:45;;;;;;;7.73;1.90;;;2.50;80.80;;;;;;5038835;28;20177;-78
2023/11/25 07:11:13;;;;;;;5.78;2.00;;;2.50;80.80;;;;;;5038671;28;20460;-80
2023/11/25 07:13:39;;;;;;;4.20;1.90;;;2.60;80.90;;;;;;5045774;28;20197;-78
2023/11/25 07:16:06;;;;;;;8.20;2.40;;;2.60;80.80;;;;;;5031666;28;20220;-78
2023/11/25 07:18:32;;;;;;;4.78;1.65;;;2.60;80.60;;;;;;5036076;28;20453;-78
2023/11/25 07:21:02;;;;;;;2.30;1.70;;;2.60;80.80;;;;;;5032965;28;20210;-78
2023/11/25 07:23:27;;;;;;;6.25;1.70;;;2.60;80.80;;;;;;5036484;28;20423;-78
2023/11/25 07:25:56;;;;;;;2.43;1.30;;;2.60;80.60;;;;;;5029197;28;20313;-80
2023/11/25 07:28:22;;;;;;;4.85;1.45;;;2.60;80.90;;;;;;5035466;28;20327;-79
2023/11/25 07:30:49;;;;;;;4.90;2.10;;;2.60;80.90;;;;;;5023934;28;20233;-79
2023/11/25 07:33:15;;;;;;;5.47;1.83;;;2.60;80.80;;;;;;5035194;28;20181;-80
2023/11/25 07:35:40;;;;;;;6.80;2.20;;;2.60;80.90;;;;;;5038274;28;20849;-78
2023/11/25 07:38:06;;;;;;;9.70;2.43;;;2.60;80.80;;;;;;5036705;28;20181;-78
2023/11/25 07:40:34;;;;;;;4.03;1.90;;;2.60;80.90;;;;;;5027051;28;20626;-78
2023/11/25 07:43:00;;;;;;;5.70;1.93;;;2.70;80.90;;;;;;5034120;28;20185;-77
2023/11/25 07:45:25;;;;;;;7.47;1.60;;;2.70;81.10;;;;;;5031877;28;20783;-78
2023/11/25 07:47:52;;;;;;;9.23;1.93;;;2.70;80.20;;;;;;5026891;28;20421;-79
2023/11/25 07:50:18;;;;;;;4.35;2.15;;;2.70;80.00;;;;;;5026803;28;20201;-78
2023/11/25 07:52:45;;;;;;;4.93;1.97;;;2.80;80.50;;;;;;5033116;28;20564;-78
2023/11/25 07:55:11;;;;;;;8.17;2.47;;;2.90;80.30;;;;;;5038754;28;20540;-80
2023/11/25 07:57:37;;;;;;;4.60;1.87;;;2.90;80.50;;;;;;5031470;28;20421;-79
2023/11/25 08:00:06;;;;;;;3.60;1.60;;;3.10;79.90;;;;;;5034672;28;20228;-80
2023/11/25 08:02:33;;;;;;;2.45;1.50;;;3.20;79.50;;;;;;5027223;28;20424;-79
2023/11/25 08:05:00;;;;;;;5.27;2.10;;;3.20;78.10;;;;;;5030444;28;20538;-81
2023/11/25 08:07:25;;;;;;;9.87;1.90;;;3.30;77.30;;;;;;5029597;28;20421;-80
2023/11/25 08:09:52;;;;;;;6.73;2.50;;;3.30;77.30;;;;;;5029901;28;21118;-80
2023/11/25 08:12:18;;;;;;;7.18;2.40;;;3.30;77.30;;;;;;5027337;28;20186;-79
2023/11/25 08:14:44;;;;;;;4.23;2.07;;;3.40;77.30;;;;;;5040926;28;20684;-79
2023/11/25 08:17:10;;;;;;;6.80;2.07;;;3.40;77.10;;;;;;5036377;28;20439;-78
2023/11/25 08:19:35;;;;;;;4.80;2.77;;;3.40;77.10;;;;;;5036313;28;20381;-80
2023/11/25 08:22:01;;;;;;;12.57;2.27;;;3.40;77.10;;;;;;5028685;28;20952;-77
2023/11/25 08:24:27;;;;;;;3.07;1.60;;;3.50;77.30;;;;;;5029359;28;20189;-80
2023/11/25 08:26:53;;;;;;;5.90;2.10;;;3.60;77.30;;;;;;5027984;28;20632;-81
2023/11/25 08:29:18;;;;;;;7.77;1.93;;;3.60;76.70;;;;;;5032738;28;20700;-81
2023/11/25 08:31:44;;;;;;;4.20;1.87;;;3.50;76.70;;;;;;5030600;28;20540;-81
2023/11/25 08:34:12;;;;;;;4.43;2.53;;;3.50;76.70;;;;;;5032596;28;20203;-82
2023/11/25 08:36:44;;;;;;;4.93;1.87;;;3.50;76.50;;;;;;5037034;28;20209;-79
2023/11/25 08:39:13;;;;;;;4.45;2.25;;;3.50;76.80;;;;;;5028010;28;20448;-82
2023/11/25 08:41:45;;;;;;;4.83;1.60;;;3.50;77.00;;;;;;5045008;28;20185;-78
2023/11/25 08:44:14;;;;;;;7.63;2.20;;;3.50;77.10;;;;;;5035481;28;20462;-78
2023/11/25 08:46:42;;;;;;;3.43;1.63;;;3.50;77.00;;;;;;5030538;28;20427;-80
2023/11/25 08:49:10;;;;;;;3.33;1.93;;;3.60;77.00;;;;;;5027906;28;20444;-78
2023/11/25 08:51:36;;;;;;;5.93;2.90;;;3.60;77.00;;;;;;5028738;28;20564;-80
2023/11/25 08:54:03;;;;;;;4.90;1.47;;;3.60;76.80;;;;;;5028081;28;21097;-79
2023/11/25 08:56:31;;;;;;;5.03;1.67;;;3.60;77.00;;;;;;5033919;28;20772;-79
2023/11/25 08:59:01;;;;;;;6.37;2.50;;;3.70;77.10;;;;;;5026595;28;20428;-82
2023/11/25 09:01:31;;;;;;;12.03;2.20;;;3.70;77.00;;;;;;5029363;28;20751;-79
2023/11/25 09:03:57;;;;;;;3.73;1.97;;;3.50;77.40;;;;;;5025693;28;20432;-79
2023/11/25 09:06:23;;;;;;;5.53;2.43;;;3.60;77.80;;;;;;5027551;28;20431;-79
2023/11/25 09:08:50;;;;;;;9.57;2.30;;;3.70;78.00;;;;;;5023500;28;20430;-80
2023/11/25 09:11:15;;;;;;;9.30;3.10;;;3.80;77.60;;;;;;5027444;28;20998;-79
2023/11/25 09:13:41;;;;;;;5.90;1.93;;;3.80;77.70;;;;;;5023130;28;20427;-79
2023/11/25 09:16:07;;;;;;;3.77;1.63;;;3.80;77.70;;;;;;5031856;28;20718;-77
2023/11/25 09:18:33;;;;;;;2.40;1.60;;;3.90;77.70;;;;;;5025860;28;20205;-79
2023/11/25 09:21:00;;;;;;;8.43;2.10;;;3.90;77.70;;;;;;5035104;28;20451;-80
2023/11/25 09:23:27;;;;;;;8.53;2.20;;;4.00;77.70;;;;;;5037758;28;20212;-79
2023/11/25 09:25:54;;;;;;;7.87;2.70;;;4.00;77.10;;;;;;5036022;28;20428;-78
2023/11/25 09:28:20;;;;;;;9.93;2.60;;;4.00;77.30;;;;;;5038618;28;20436;-77
2023/11/25 09:30:46;;;;;;;10.80;2.80;;;4.00;77.40;;;;;;5033910;28;20566;-78
2023/11/25 09:33:12;;;;;;;10.40;2.67;;;4.00;77.60;;;;;;5037284;28;20182;-78
2023/11/25 09:35:37;;;;;;;14.07;3.50;;;4.00;77.80;;;;;;5038793;28;20492;-78
2023/11/25 09:38:03;;;;;;;10.00;2.80;;;4.10;77.80;;;;;;5046381;28;20203;-78
2023/11/25 09:40:29;;;;;;;14.93;3.20;;;4.00;77.00;;;;;;5036307;28;20212;-77
2023/11/25 09:42:54;;;;;;;10.23;4.53;;;4.00;77.40;;;;;;5040938;28;20436;-77
2023/11/25 09:45:28;;;;;;;7.13;2.50;;;3.90;77.80;;;;;;5042013;28;20439;-78
2023/11/25 09:47:54;;;;;;;8.03;2.67;;;3.90;78.10;;;;;;5046537;28;20243;-78
2023/11/25 09:50:22;;;;;;;16.77;2.90;;;3.90;77.80;;;;;;5033138;28;20624;-78
2023/11/25 09:52:52;;;;;;;8.90;4.27;;;4.00;77.60;;;;;;5039745;28;20452;-81
2023/11/25 09:55:22;;;;;;;9.67;2.03;;;4.00;77.60;;;;;;5027859;28;20461;-81
2023/11/25 09:57:50;;;;;;;7.87;3.27;;;4.00;77.60;;;;;;5031788;28;20417;-79
2023/11/25 10:00:17;;;;;;;11.27;3.10;;;4.00;77.30;;;;;;5019932;28;21008;-79
2023/11/25 10:02:45;;;;;;;6.73;2.63;;;4.10;77.60;;;;;;5031463;28;20456;-78
2023/11/25 10:05:11;;;;;;;10.90;3.00;;;4.10;76.80;;;;;;5018236;28;20731;-78
2023/11/25 10:07:37;;;;;;;9.17;2.60;;;4.30;76.70;;;;;;5030744;28;20479;-79
2023/11/25 10:10:04;;;;;;;12.57;3.17;;;4.30;76.40;;;;;;5036637;28;20479;-77
2023/11/25 10:12:30;;;;;;;4.00;1.90;;;4.30;76.50;;;;;;5031160;28;20485;-81
2023/11/25 10:14:59;;;;;;;10.93;2.20;;;4.50;76.20;;;;;;5024151;28;20479;-80
2023/11/25 10:17:25;;;;;;;11.50;3.00;;;4.50;75.70;;;;;;5032007;28;20447;-80
2023/11/25 10:20:10;;;;;;;8.50;2.33;;;4.40;75.50;;;;;;5035476;28;20849;-79
2023/11/25 10:22:47;;;;;;;10.17;2.67;;;4.50;75.80;;;;;;5039328;28;20446;-78
2023/11/25 10:25:15;;;;;;;8.10;2.50;;;4.60;75.40;;;;;;5036721;28;20528;-79
2023/11/25 10:27:40;;;;;;;7.50;2.20;;;4.70;75.20;;;;;;5023159;28;20518;-80
2023/11/25 10:30:08;;;;;;;4.03;1.77;;;4.80;75.10;;;;;;5024914;28;20486;-79
2023/11/25 10:32:34;;;;;;;14.33;2.90;;;4.90;74.00;;;;;;5023857;28;20186;-78
2023/11/25 10:35:01;;;;;;;11.07;2.80;;;4.90;73.60;;;;;;5025917;28;20487;-79
2023/11/25 10:37:27;;;;;;;10.67;3.00;;;4.90;73.30;;;;;;5022393;28;20440;-80
2023/11/25 10:39:52;;;;;;;7.53;2.50;;;5.00;73.50;;;;;;5028537;28;20484;-80
2023/11/25 10:42:19;;;;;;;11.80;2.97;;;4.90;72.90;;;;;;5020671;28;21256;-79
2023/11/25 10:44:48;;;;;;;8.93;2.80;;;4.80;73.00;;;;;;5029671;28;20428;-80
2023/11/25 10:47:33;;;;;;;10.40;2.90;;;4.90;73.50;;;;;;5023166;28;20525;-78
2023/11/25 10:50:03;;;;;;;11.17;2.70;;;5.10;73.20;;;;;;5035382;28;20467;-78
2023/11/25 10:52:32;;;;;;;7.90;3.20;;;5.20;73.30;;;;;;5029109;28;20441;-77
2023/11/25 10:54:59;;;;;;;6.83;3.30;;;5.30;73.20;;;;;;5030215;28;20461;-78
2023/11/25 10:57:26;;;;;;;18.97;3.90;;;5.50;72.90;;;;;;5034497;28;20416;-77
2023/11/25 10:59:57;;;;;;;9.27;3.73;;;5.70;72.70;;;;;;5039685;28;20535;-76
2023/11/25 11:02:30;;;;;;;12.63;3.73;;;5.80;71.60;;;;;;5036711;28;20424;-77
2023/11/25 11:05:08;;;;;;;10.90;3.30;;;5.90;71.30;;;;;;5036774;28;20419;-77
2023/11/25 11:07:46;;;;;;;9.33;2.60;;;5.80;69.90;;;;;;5032467;28;20458;-80
2023/11/25 11:10:17;;;;;;;18.80;3.40;;;5.70;70.20;;;;;;5028113;28;20467;-78
2023/11/25 11:12:51;;;;;;;11.63;3.27;;;5.70;69.80;;;;;;5035825;28;20413;-78
2023/11/25 11:15:20;;;;;;;15.73;3.57;;;5.70;69.80;;;;;;5024180;28;20507;-77
2023/11/25 11:18:07;;;;;;;4.73;2.27;;;5.60;69.50;;;;;;5036538;28;20448;-78
2023/11/25 11:20:40;;;;;;;7.57;1.97;;;5.60;70.10;;;;;;5022145;28;20854;-81
2023/11/25 11:23:08;;;;;;;7.07;2.70;;;5.60;70.20;;;;;;5026543;28;20931;-81
2023/11/25 11:25:51;;;;;;;11.20;2.67;;;5.40;70.80;;;;;;5033745;28;20549;-81
2023/11/25 11:28:23;;;;;;;9.07;2.90;;;5.20;71.80;;;;;;5030030;28;20415;-82
2023/11/25 11:31:10;;;;;;;8.63;3.50;;;5.30;72.30;;;;;;5035888;28;20468;-79
2023/11/25 11:33:35;;;;;;;10.20;4.10;;;5.40;72.30;;;;;;5027909;28;20416;-80
2023/11/25 11:36:05;;;;;;;12.67;3.33;;;5.60;72.10;;;;;;5031349;28;21042;-81
2023/11/25 11:38:32;;;;;;;7.83;2.00;;;5.70;71.60;;;;;;5028727;28;20197;-81
2023/11/25 11:41:20;;;;;;;11.37;2.60;;;5.70;71.40;;;;;;5028431;28;20472;-82
2023/11/25 11:44:05;;;;;;;10.63;2.43;;;5.60;71.10;;;;;;5036962;28;20675;-78
2023/11/25 11:46:32;;;;;;;8.47;2.20;;;5.30;71.10;;;;;;5042838;28;20944;-81
2023/11/25 11:48:59;;;;;;;5.47;2.67;;;5.20;72.10;;;;;;5032961;28;20425;-80
2023/11/25 11:51:25;;;;;;;11.30;2.60;;;5.10;72.10;;;;;;5029950;28;20455;-80
2023/11/25 11:54:23;;;;;;;6.30;2.40;;;5.00;73.20;;;;;;5041548;28;20535;-81
2023/11/25 11:57:03;;;;;;;7.43;2.40;;;4.80;75.10;;;;;;5031294;28;20511;-82
2023/11/25 12:00:00;;;;;;;5.57;2.00;;;4.60;76.40;;;;;;5037822;28;20804;-80
2023/11/25 12:02:30;;;;;;;2.43;1.43;;;4.20;78.40;;;;;;5030113;28;21049;-81
2023/11/25 12:04:58;;;;;;;2.70;1.63;;;4.10;80.20;;;;;;5030068;28;20536;-81
2023/11/25 12:07:24;;;;;;;7.60;2.10;;;3.80;81.50;;;;;;5032876;28;20431;-81
2023/11/25 12:09:50;;;;;;;11.40;2.10;;;3.70;82.80;;;;;;5030969;28;20468;-81
2023/11/25 12:12:16;;;;;;;7.50;2.40;;;3.70;83.40;;;;;;5036524;28;20442;-79
2023/11/25 12:14:41;;;;;;;6.90;2.10;;;3.70;83.40;;;;;;5033318;28;20198;-81
2023/11/25 12:17:08;;;;;;;2.40;1.50;;;4.00;83.80;;;;;;5044812;28;20200;-79
2023/11/25 12:19:34;;;;;;;6.33;2.10;;;4.10;83.30;;;;;;5032072;28;20189;-77
2023/11/25 12:22:00;;;;;;;5.77;1.80;;;4.10;82.10;;;;;;5036879;28;20789;-79
2023/11/25 12:24:25;;;;;;;4.03;1.83;;;4.10;81.90;;;;;;5039125;28;20448;-79
2023/11/25 12:26:56;;;;;;;3.50;2.03;;;4.10;81.90;;;;;;5031857;28;20293;-78
2023/11/25 12:29:23;;;;;;;4.17;1.73;;;4.20;81.90;;;;;;5024962;28;20204;-77
2023/11/25 12:31:50;;;;;;;5.77;2.20;;;4.20;81.80;;;;;;5027118;28;20440;-79
2023/11/25 12:34:15;;;;;;;3.03;1.67;;;4.20;82.10;;;;;;5027344;28;20433;-77
2023/11/25 12:36:41;;;;;;;7.37;1.93;;;4.30;82.10;;;;;;5024498;28;20463;-81
2023/11/25 12:39:12;;;;;;;5.80;1.70;;;4.30;81.40;;;;;;5026976;28;20260;-78
2023/11/25 12:41:41;;;;;;;5.07;1.93;;;4.30;81.40;;;;;;5041974;28;20427;-79
2023/11/25 12:44:11;;;;;;;3.30;1.90;;;4.30;81.20;;;;;;5044968;28;20432;-78
2023/11/25 12:46:41;;;;;;;3.23;1.67;;;4.30;81.70;;;;;;5028529;28;20431;-78
2023/11/25 12:49:24;;;;;;;12.73;2.87;;;4.20;81.10;;;;;;5028081;28;20425;-78
2023/11/25 12:51:51;;;;;;;4.33;1.87;;;4.20;81.70;;;;;;5024532;28;20444;-78
2023/11/25 12:54:17;;;;;;;5.67;1.40;;;4.10;81.80;;;;;;5026968;28;20962;-79
2023/11/25 12:56:50;;;;;;;6.00;1.80;;;4.10;82.10;;;;;;5026361;28;20463;-79